createdAt,value
2023-03-05T00:01:08.721Z,93.81
2023-03-05T00:03:36.760Z,94.55
2023-03-05T00:06:05.349Z,94.19
2023-03-05T00:08:35.665Z,94.49
2023-03-05T00:11:05.434Z,93.95
2023-03-05T00:13:33.943Z,94.65
2023-03-05T00:16:05.380Z,94.31
2023-03-05T00:18:33.518Z,94.79
2023-03-05T00:21:01.468Z,94.63
2023-03-05T00:23:29.568Z,94.70
2023-03-05T00:26:03.546Z,94.98
2023-03-05T00:28:31.458Z,95.14
2023-03-05T00:31:01.538Z,94.89
2023-03-05T00:33:29.933Z,95.08
2023-03-05T00:35:58.696Z,95.37
2023-03-05T00:38:26.696Z,95.27
2023-03-05T00:40:54.779Z,95.16
2023-03-05T00:43:24.113Z,95.69
2023-03-05T00:45:52.014Z,96.48
2023-03-05T00:48:20.014Z,96.34
2023-03-05T00:50:47.892Z,96.12
2023-03-05T00:53:15.808Z,96.20
2023-03-05T00:55:43.665Z,96.34
2023-03-05T00:58:11.785Z,96.31
2023-03-05T01:00:41.144Z,96.14
2023-03-05T01:03:10.041Z,95.95
2023-03-05T01:05:38.222Z,96.38
2023-03-05T01:08:06.656Z,96.76
2023-03-05T01:10:34.980Z,96.83
2023-03-05T01:13:02.845Z,97.15
2023-03-05T01:15:30.747Z,96.80
2023-03-05T01:18:00.119Z,96.66
2023-03-05T01:20:28.061Z,96.78
2023-03-05T01:22:56.274Z,96.88
2023-03-05T01:25:24.174Z,96.61
2023-03-05T01:27:52.609Z,96.97
2023-03-05T01:30:21.182Z,96.91
2023-03-05T01:32:49.874Z,97.17
2023-03-05T01:35:21.363Z,96.82
2023-03-05T01:37:49.717Z,97.03
2023-03-05T01:40:22.028Z,97.35
2023-03-05T01:42:56.324Z,97.50
2023-03-05T01:45:24.493Z,97.42
2023-03-05T01:47:52.385Z,96.89
2023-03-05T01:50:26.139Z,96.63
2023-03-05T01:52:59.652Z,96.90
2023-03-05T01:55:30.828Z,96.75
2023-03-05T01:58:02.863Z,96.77
2023-03-05T02:00:33.693Z,96.63
2023-03-05T02:03:06.166Z,96.47
2023-03-05T02:05:36.600Z,96.44
2023-03-05T02:08:07.274Z,96.50
2023-03-05T02:10:37.754Z,96.43
2023-03-05T02:13:09.169Z,96.24
2023-03-05T02:15:37.709Z,96.06
2023-03-05T02:18:06.754Z,95.68
2023-03-05T02:20:46.948Z,95.42
2023-03-05T02:23:17.639Z,95.07
2023-03-05T02:25:45.796Z,95.34
2023-03-05T02:28:19.460Z,95.57
2023-03-05T02:30:48.064Z,95.81
2023-03-05T02:33:17.065Z,95.75
2023-03-05T02:35:46.488Z,94.92
2023-03-05T02:38:18.919Z,94.98
2023-03-05T02:40:47.034Z,94.91
2023-03-05T02:43:17.044Z,94.71
2023-03-05T02:45:45.162Z,94.54
2023-03-05T02:48:13.434Z,94.52
2023-03-05T02:50:42.604Z,94.46
2023-03-05T02:53:10.736Z,94.35
2023-03-05T02:58:30.134Z,94.85
2023-03-05T03:00:58.113Z,94.95
2023-03-05T03:03:26.045Z,95.02
2023-03-05T03:05:53.943Z,94.92
2023-03-05T03:08:21.797Z,95.32
2023-03-05T03:10:51.009Z,95.16
2023-03-05T03:13:18.852Z,95.45
2023-03-05T03:15:47.323Z,95.43
2023-03-05T03:18:15.256Z,95.43
2023-03-05T03:20:43.197Z,95.69
2023-03-05T03:23:11.189Z,95.61
2023-03-05T03:25:39.287Z,95.60
2023-03-05T03:28:08.656Z,95.51
2023-03-05T03:30:36.842Z,95.57
2023-03-05T03:33:04.920Z,95.61
2023-03-05T03:35:33.311Z,95.52
2023-03-05T03:38:01.356Z,95.89
2023-03-05T03:40:29.230Z,95.59
2023-03-05T03:42:57.119Z,95.61
2023-03-05T03:45:26.355Z,96.14
2023-03-05T03:47:54.218Z,96.21
2023-03-05T03:50:24.897Z,96.00
2023-03-05T03:52:53.124Z,95.79
2023-03-05T03:55:21.003Z,96.24
2023-03-05T03:57:49.207Z,96.07
2023-03-05T04:00:18.225Z,95.82
2023-03-05T04:02:47.468Z,95.73
2023-03-05T04:05:15.697Z,95.77
2023-03-05T04:07:45.380Z,95.58
2023-03-05T04:10:13.797Z,95.78
2023-03-05T04:12:42.956Z,95.72
2023-03-05T04:15:11.865Z,96.23
2023-03-05T04:17:39.859Z,96.50
2023-03-05T04:20:10.575Z,96.18
2023-03-05T04:22:39.220Z,96.20
2023-03-05T04:25:08.563Z,96.10
2023-03-05T04:27:37.465Z,95.78
2023-03-05T04:30:06.197Z,95.46
2023-03-05T04:32:34.523Z,95.24
2023-03-05T04:35:02.389Z,95.81
2023-03-05T04:37:31.649Z,95.89
2023-03-05T04:39:59.594Z,95.68
2023-03-05T04:42:27.734Z,95.53
2023-03-05T04:44:55.613Z,95.72
2023-03-05T04:47:23.478Z,95.50
2023-03-05T04:49:51.308Z,95.78
2023-03-05T04:52:19.120Z,95.21
2023-03-05T04:54:48.521Z,95.30
2023-03-05T04:57:16.363Z,95.83
2023-03-05T04:59:44.301Z,95.17
2023-03-05T05:02:12.327Z,95.29
2023-03-05T05:04:40.480Z,95.85
2023-03-05T05:07:08.639Z,95.54
2023-03-05T05:09:36.529Z,95.65
2023-03-05T05:12:06.451Z,95.47
2023-03-05T05:14:34.917Z,95.12
2023-03-05T05:17:05.055Z,94.89
2023-03-05T05:19:33.142Z,95.42
2023-03-05T05:22:01.150Z,94.92
2023-03-05T05:24:29.013Z,94.46
2023-03-05T05:26:57.188Z,94.47
2023-03-05T05:29:26.521Z,94.76
2023-03-05T05:31:54.642Z,95.09
2023-03-05T05:34:24.421Z,94.39
2023-03-05T05:36:52.711Z,94.98
2023-03-05T05:39:20.748Z,95.30
2023-03-05T05:41:51.765Z,95.05
2023-03-05T05:44:19.971Z,95.25
2023-03-05T05:46:49.388Z,95.30
2023-03-05T05:49:17.610Z,96.03
2023-03-05T05:51:45.533Z,96.04
2023-03-05T05:54:14.490Z,95.71
2023-03-05T05:56:43.187Z,96.12
2023-03-05T05:59:11.820Z,96.01
2023-03-05T06:01:39.778Z,96.01
2023-03-05T06:04:09.127Z,96.11
2023-03-05T06:06:37.076Z,95.47
2023-03-05T06:09:05.831Z,96.23
2023-03-05T06:11:34.075Z,96.21
2023-03-05T06:14:03.686Z,95.76
2023-03-05T06:16:32.106Z,95.94
2023-03-05T06:19:00.135Z,96.81
2023-03-05T06:21:29.335Z,97.06
2023-03-05T06:23:58.660Z,96.21
2023-03-05T06:26:27.284Z,96.71
2023-03-05T06:28:55.523Z,96.35
2023-03-05T06:31:25.954Z,96.23
2023-03-05T06:33:55.443Z,96.31
2023-03-05T06:36:25.470Z,96.13
2023-03-05T06:38:55.374Z,96.11
2023-03-05T06:41:25.077Z,95.83
2023-03-05T06:43:53.198Z,95.50
2023-03-05T06:46:23.346Z,94.62
2023-03-05T06:48:52.559Z,94.79
2023-03-05T06:51:22.942Z,95.40
2023-03-05T06:53:51.556Z,95.24
2023-03-05T06:56:21.732Z,95.32
2023-03-05T06:58:51.844Z,95.53
2023-03-05T07:01:20.665Z,95.00
2023-03-05T07:03:50.787Z,95.26
2023-03-05T07:06:19.142Z,95.17
2023-03-05T07:08:47.284Z,95.15
2023-03-05T07:11:16.807Z,95.51
2023-03-05T07:13:47.710Z,95.60
2023-03-05T07:16:18.098Z,95.47
2023-03-05T07:18:46.335Z,95.34
2023-03-05T07:21:17.796Z,95.36
2023-03-05T07:23:45.721Z,94.86
2023-03-05T07:26:13.932Z,94.90
2023-03-05T07:28:42.450Z,94.08
2023-03-05T07:31:14.618Z,94.34
2023-03-05T07:33:42.878Z,93.75
2023-03-05T07:36:11.490Z,92.55
2023-03-05T07:38:39.862Z,92.96
2023-03-05T07:41:09.895Z,92.59
2023-03-05T07:43:38.588Z,93.49
2023-03-05T07:46:07.475Z,93.08
2023-03-05T07:48:36.915Z,93.08
2023-03-05T07:51:06.408Z,93.08
2023-03-05T07:53:34.419Z,93.24
2023-03-05T07:56:02.841Z,92.37
2023-03-05T07:58:30.764Z,93.58
2023-03-05T08:00:58.873Z,93.10
2023-03-05T08:03:27.031Z,92.18
2023-03-05T08:05:56.275Z,92.16
2023-03-05T08:08:24.121Z,92.55
2023-03-05T08:10:52.002Z,91.87
2023-03-05T08:13:19.881Z,91.64
2023-03-05T08:15:47.701Z,91.14
2023-03-05T08:18:18.845Z,91.74
2023-03-05T08:20:46.806Z,90.63
2023-03-05T08:23:16.156Z,90.96
2023-03-05T08:25:44.492Z,90.62
2023-03-05T08:28:12.820Z,91.68
2023-03-05T08:30:42.186Z,92.45
2023-03-05T08:33:10.301Z,91.33
2023-03-05T08:35:38.309Z,91.96
2023-03-05T08:38:06.396Z,91.12
2023-03-05T08:40:35.748Z,91.65
2023-03-05T08:43:05.792Z,88.69
2023-03-05T08:45:33.847Z,88.81
2023-03-05T08:48:01.901Z,87.55
2023-03-05T08:50:30.001Z,86.93
2023-03-05T08:52:58.048Z,87.27
2023-03-05T08:55:26.365Z,87.39
2023-03-05T08:57:55.801Z,86.87
2023-03-05T09:00:24.168Z,87.14
2023-03-05T09:02:52.402Z,86.71
2023-03-05T09:05:20.674Z,86.81
2023-03-05T09:07:48.674Z,86.44
2023-03-05T09:10:18.340Z,86.19
2023-03-05T09:12:46.207Z,86.64
2023-03-05T09:15:15.785Z,86.87
2023-03-05T09:17:43.878Z,87.51
2023-03-05T09:20:14.461Z,87.18
2023-03-05T09:22:42.689Z,87.25
2023-03-05T09:25:13.138Z,86.79
2023-03-05T09:27:40.992Z,87.95
2023-03-05T09:30:10.127Z,87.72
2023-03-05T09:32:39.454Z,87.87
2023-03-05T09:35:08.736Z,88.16
2023-03-05T09:37:36.634Z,87.67
2023-03-05T09:40:05.005Z,87.85
2023-03-05T09:42:50.403Z,87.58
2023-03-05T09:45:22.243Z,87.72
2023-03-05T09:47:59.027Z,87.33
2023-03-05T09:50:37.554Z,87.08
2023-03-05T09:53:26.727Z,86.63
2023-03-05T09:55:56.836Z,86.51
2023-03-05T09:58:35.154Z,86.52
2023-03-05T10:01:07.491Z,86.03
2023-03-05T10:03:48.766Z,85.85
2023-03-05T10:06:22.825Z,85.70
2023-03-05T10:08:56.151Z,84.12
2023-03-05T10:11:37.506Z,83.49
2023-03-05T10:14:06.094Z,82.98
2023-03-05T10:17:02.020Z,81.33
2023-03-05T10:20:04.721Z,80.30
2023-03-05T10:22:35.091Z,79.64
2023-03-05T10:25:18.914Z,78.92
2023-03-05T10:27:52.560Z,78.06
2023-03-05T10:30:54.665Z,75.86
2023-03-05T10:33:33.566Z,77.69
2023-03-05T10:36:45.084Z,77.49
2023-03-05T10:39:35.903Z,78.50
2023-03-05T10:42:12.250Z,80.03
2023-03-05T10:44:45.286Z,81.06
2023-03-05T10:47:19.388Z,80.95
2023-03-05T10:49:51.951Z,82.64
2023-03-05T10:52:26.419Z,83.82
2023-03-05T10:54:54.570Z,85.16
2023-03-05T10:57:24.902Z,86.08
2023-03-05T10:59:55.850Z,86.94
2023-03-05T11:02:27.910Z,87.09
2023-03-05T11:04:55.918Z,87.25
2023-03-05T11:07:34.544Z,87.31
2023-03-05T11:10:21.412Z,88.23
2023-03-05T11:12:49.361Z,90.71
2023-03-05T11:15:30.326Z,93.44
2023-03-05T11:18:24.169Z,95.55
2023-03-05T11:20:52.187Z,95.70
2023-03-05T11:23:23.861Z,96.71
2023-03-05T11:26:02.216Z,96.60
2023-03-05T11:28:34.036Z,97.81
2023-03-05T11:31:09.423Z,97.82
2023-03-05T11:33:38.330Z,98.52
2023-03-05T11:36:24.713Z,97.45
2023-03-05T11:38:57.127Z,97.10
2023-03-05T11:41:31.035Z,97.73
2023-03-05T11:44:00.651Z,98.72
2023-03-05T11:46:29.303Z,99.65
2023-03-05T11:48:58.156Z,99.83
2023-03-05T11:51:37.366Z,100.00
2023-03-05T11:54:13.923Z,100.00
2023-03-05T11:56:44.789Z,100.00
2023-03-05T11:59:17.570Z,100.00
2023-03-05T12:01:51.156Z,100.00
2023-03-05T12:04:20.605Z,99.38
2023-03-05T12:06:51.360Z,99.58
2023-03-05T12:09:27.687Z,97.94
2023-03-05T12:12:03.057Z,97.53
2023-03-05T12:14:39.881Z,96.79
2023-03-05T12:17:17.892Z,95.70
2023-03-05T12:19:53.629Z,94.21
2023-03-05T12:22:24.109Z,94.53
2023-03-05T12:24:53.483Z,93.44
2023-03-05T12:27:36.824Z,92.62
2023-03-05T12:30:06.351Z,92.53
2023-03-05T12:33:02.230Z,93.17
2023-03-05T12:35:42.875Z,94.40
2023-03-05T12:38:32.672Z,93.80
2023-03-05T12:41:38.440Z,94.92
2023-03-05T12:44:21.012Z,95.29
2023-03-05T12:47:17.770Z,95.69
2023-03-05T12:49:46.881Z,96.43
2023-03-05T12:52:26.491Z,96.62
2023-03-05T12:55:23.644Z,96.16
2023-03-05T12:57:58.354Z,95.83
2023-03-05T13:00:33.711Z,95.96
2023-03-05T13:03:05.906Z,94.98
2023-03-05T13:05:36.674Z,93.61
2023-03-05T13:08:15.769Z,93.29
2023-03-05T13:10:50.923Z,92.78
2023-03-05T13:13:21.665Z,92.17
2023-03-05T13:15:51.612Z,91.36
2023-03-05T13:18:22.352Z,93.00
2023-03-05T13:21:02.500Z,91.18
2023-03-05T13:23:30.429Z,92.04
2023-03-05T13:26:05.390Z,93.09
2023-03-05T13:28:34.850Z,91.36
2023-03-05T13:31:04.990Z,91.20
2023-03-05T13:33:35.011Z,90.50
2023-03-05T13:36:03.375Z,90.33
2023-03-05T13:38:37.121Z,90.65
2023-03-05T13:41:08.566Z,90.97
2023-03-05T13:43:43.929Z,90.65
2023-03-05T13:46:12.292Z,90.32
2023-03-05T13:48:40.413Z,89.97
2023-03-05T13:51:09.620Z,88.09
2023-03-05T13:53:37.560Z,89.00
2023-03-05T13:56:07.934Z,88.98
2023-03-05T13:58:48.064Z,89.79
2023-03-05T14:01:25.150Z,88.20
2023-03-05T14:03:56.283Z,87.85
2023-03-05T14:06:27.746Z,88.87
2023-03-05T14:09:04.222Z,89.30
2023-03-05T14:11:32.130Z,88.09
2023-03-05T14:14:07.953Z,87.29
2023-03-05T14:16:35.924Z,86.63
2023-03-05T14:19:07.271Z,86.82
2023-03-05T14:21:48.191Z,87.46
2023-03-05T14:24:22.713Z,86.98
2023-03-05T14:26:53.147Z,84.41
2023-03-05T14:29:25.676Z,86.27
2023-03-05T14:31:57.710Z,84.21
2023-03-05T14:34:31.020Z,84.24
2023-03-05T14:37:03.173Z,83.27
2023-03-05T14:39:46.845Z,84.62
2023-03-05T14:42:30.938Z,84.74
2023-03-05T14:45:01.922Z,86.41
2023-03-05T14:47:30.028Z,85.62
2023-03-05T14:49:58.122Z,86.07
2023-03-05T14:52:26.883Z,86.56
2023-03-05T14:54:55.870Z,84.89
2023-03-05T14:57:27.821Z,86.39
2023-03-05T14:59:56.529Z,87.25
2023-03-05T15:02:27.610Z,88.55
2023-03-05T15:04:55.505Z,89.00
2023-03-05T15:07:27.801Z,88.91
2023-03-05T15:09:55.805Z,89.44
2023-03-05T15:12:24.815Z,88.93
2023-03-05T15:14:53.349Z,89.88
2023-03-05T15:17:23.759Z,90.02
2023-03-05T15:19:53.785Z,90.76
2023-03-05T15:22:21.700Z,90.80
2023-03-05T15:24:49.654Z,90.55
2023-03-05T15:27:17.505Z,90.75
2023-03-05T15:29:45.602Z,90.90
2023-03-05T15:32:13.575Z,91.52
2023-03-05T15:34:41.570Z,91.07
2023-03-05T15:37:10.808Z,91.19
2023-03-05T15:39:38.828Z,90.31
2023-03-05T15:42:07.165Z,89.85
2023-03-05T15:44:35.143Z,91.30
2023-03-05T15:47:03.171Z,90.51
2023-03-05T15:49:31.079Z,91.60
2023-03-05T15:51:59.137Z,91.57
2023-03-05T15:54:28.636Z,90.50
2023-03-05T15:56:56.490Z,92.40
2023-03-05T15:59:25.187Z,93.54
2023-03-05T16:01:53.802Z,93.63
2023-03-05T16:04:21.743Z,95.80
2023-03-05T16:06:51.380Z,95.36
2023-03-05T16:09:21.730Z,96.04
2023-03-05T16:11:51.570Z,94.77
2023-03-05T16:14:24.182Z,95.14
2023-03-05T16:16:54.554Z,96.15
2023-03-05T16:19:25.714Z,94.84
2023-03-05T16:21:53.679Z,95.70
2023-03-05T16:24:22.006Z,96.57
2023-03-05T16:26:51.287Z,96.19
2023-03-05T16:29:19.318Z,96.05
2023-03-05T16:31:47.697Z,95.61
2023-03-05T16:34:16.248Z,96.63
2023-03-05T16:36:48.968Z,96.30
2023-03-05T16:39:16.964Z,96.15
2023-03-05T16:41:44.929Z,95.98
2023-03-05T16:44:14.450Z,96.46
2023-03-05T16:46:43.981Z,96.19
2023-03-05T16:49:12.621Z,95.50
2023-03-05T16:51:40.738Z,95.86
2023-03-05T16:54:10.214Z,95.70
2023-03-05T16:56:38.431Z,95.92
2023-03-05T16:59:06.694Z,96.67
2023-03-05T17:01:36.128Z,97.64
2023-03-05T17:04:04.464Z,97.10
2023-03-05T17:06:34.756Z,97.62
2023-03-05T17:09:03.042Z,98.13
2023-03-05T17:11:31.981Z,99.19
2023-03-05T17:13:59.975Z,99.98
2023-03-05T17:16:28.204Z,98.94
2023-03-05T17:18:57.445Z,98.09
2023-03-05T17:21:25.604Z,98.71
2023-03-05T17:23:53.543Z,98.70
2023-03-05T17:26:21.750Z,98.75
2023-03-05T17:28:50.168Z,99.03
2023-03-05T17:31:18.268Z,99.42
2023-03-05T17:33:46.496Z,98.78
2023-03-05T17:36:17.654Z,98.74
2023-03-05T17:38:46.401Z,98.08
2023-03-05T17:41:14.942Z,98.40
2023-03-05T17:43:43.463Z,99.68
2023-03-05T17:46:11.974Z,99.48
2023-03-05T17:48:40.487Z,100.00
2023-03-05T17:51:10.807Z,100.00
2023-03-05T17:53:40.705Z,100.00
2023-03-05T17:56:10.564Z,100.00
2023-03-05T17:58:39.284Z,100.00
2023-03-05T18:01:08.294Z,100.00
2023-03-05T18:03:36.638Z,100.00
2023-03-05T18:06:05.442Z,100.00
2023-03-05T18:08:33.753Z,100.00
2023-03-05T18:11:03.211Z,100.00
2023-03-05T18:13:31.434Z,100.00
2023-03-05T18:16:00.078Z,100.00
2023-03-05T18:18:28.286Z,100.00
2023-03-05T18:20:56.700Z,100.00
2023-03-05T18:23:24.867Z,100.00
2023-03-05T18:25:52.910Z,100.00
2023-03-05T18:28:22.706Z,100.00
2023-03-05T18:30:50.720Z,100.00
2023-03-05T18:33:21.088Z,100.00
2023-03-05T18:35:52.129Z,100.00
2023-03-05T18:38:20.786Z,100.00
2023-03-05T18:40:51.179Z,100.00
2023-03-05T18:43:20.744Z,100.00
2023-03-05T18:45:51.403Z,100.00
2023-03-05T18:48:19.736Z,100.00
2023-03-05T18:50:50.069Z,100.00
2023-03-05T18:53:18.058Z,100.00
2023-03-05T18:55:46.048Z,100.00
2023-03-05T18:58:15.415Z,100.00
2023-03-05T19:00:44.879Z,99.84
2023-03-05T19:03:14.410Z,100.00
2023-03-05T19:05:42.796Z,99.97
2023-03-05T19:08:11.262Z,99.87
2023-03-05T19:10:40.024Z,99.77
2023-03-05T19:13:18.705Z,99.77
2023-03-05T19:15:46.694Z,100.00
2023-03-05T19:18:15.912Z,100.00
2023-03-05T19:20:44.159Z,100.00
2023-03-05T19:23:12.795Z,99.59
2023-03-05T19:25:41.423Z,99.37
2023-03-05T19:28:09.517Z,99.03
2023-03-05T19:30:38.143Z,99.42
2023-03-05T19:33:06.244Z,99.68
2023-03-05T19:35:35.552Z,99.91
2023-03-05T19:38:03.357Z,99.73
2023-03-05T19:40:31.275Z,100.00
2023-03-05T19:42:59.467Z,100.00
2023-03-05T19:45:27.329Z,100.00
2023-03-05T19:47:55.199Z,100.00
2023-03-05T19:50:23.261Z,100.00
2023-03-05T19:52:52.514Z,100.00
2023-03-05T19:55:20.654Z,100.00
2023-03-05T19:57:48.844Z,100.00
2023-03-05T20:00:17.325Z,100.00
2023-03-05T20:02:45.166Z,100.00
2023-03-05T20:05:13.300Z,100.00
2023-03-05T20:07:41.266Z,100.00
2023-03-05T20:10:12.082Z,100.00
2023-03-05T20:12:39.951Z,100.00
2023-03-05T20:15:08.878Z,100.00
2023-03-05T20:17:36.937Z,100.00
2023-03-05T20:20:05.595Z,100.00
2023-03-05T20:22:33.729Z,100.00
2023-03-05T20:25:01.640Z,100.00
2023-03-05T20:27:30.994Z,100.00
2023-03-05T20:29:59.685Z,100.00
2023-03-05T20:32:27.644Z,100.00
2023-03-05T20:34:56.140Z,100.00
2023-03-05T20:37:29.920Z,100.00
2023-03-05T20:39:58.064Z,100.00
2023-03-05T20:42:26.033Z,100.00
2023-03-05T20:44:55.358Z,100.00
2023-03-05T20:47:32.321Z,100.00
2023-03-05T20:50:00.305Z,100.00
2023-03-05T20:52:28.210Z,100.00
2023-03-05T20:54:56.139Z,100.00
2023-03-05T20:57:24.244Z,100.00
2023-03-05T20:59:52.238Z,100.00
2023-03-05T21:02:21.782Z,100.00
2023-03-05T21:04:49.929Z,100.00
2023-03-05T21:07:17.854Z,100.00
2023-03-05T21:09:45.956Z,100.00
2023-03-05T21:12:13.883Z,100.00
2023-03-05T21:14:41.766Z,100.00
2023-03-05T21:17:10.030Z,100.00
2023-03-05T21:19:40.074Z,100.00
2023-03-05T21:22:08.107Z,100.00
2023-03-05T21:24:52.044Z,100.00
2023-03-05T21:27:19.876Z,100.00
2023-03-05T21:29:47.740Z,100.00
2023-03-05T21:32:15.972Z,100.00
2023-03-05T21:34:45.581Z,100.00
2023-03-05T21:37:13.625Z,100.00
2023-03-05T21:39:41.524Z,100.00
2023-03-05T21:42:10.489Z,100.00
2023-03-05T21:44:38.752Z,100.00
2023-03-05T21:47:06.643Z,100.00
2023-03-05T21:49:34.721Z,100.00
2023-03-05T21:52:09.302Z,100.00
2023-03-05T21:54:37.895Z,100.00
2023-03-05T21:57:06.620Z,100.00
2023-03-05T21:59:34.772Z,100.00
2023-03-05T22:02:03.001Z,100.00
2023-03-05T22:04:30.944Z,100.00
2023-03-05T22:06:58.766Z,100.00
2023-03-05T22:09:28.045Z,100.00
2023-03-05T22:11:55.901Z,100.00
2023-03-05T22:14:25.618Z,100.00
2023-03-05T22:16:55.045Z,100.00
2023-03-05T22:19:23.406Z,100.00
2023-03-05T22:21:51.252Z,100.00
2023-03-05T22:24:19.194Z,100.00
2023-03-05T22:26:48.620Z,100.00
2023-03-05T22:29:17.440Z,100.00
2023-03-05T22:31:46.059Z,100.00
2023-03-05T22:34:13.939Z,100.00
2023-03-05T22:36:41.975Z,100.00
2023-03-05T22:39:09.885Z,100.00
2023-03-05T22:41:37.749Z,100.00
2023-03-05T22:44:07.110Z,100.00
2023-03-05T22:46:34.987Z,100.00
2023-03-05T22:49:02.856Z,100.00
2023-03-05T22:51:31.068Z,100.00
2023-03-05T22:53:59.001Z,100.00
2023-03-05T22:56:26.932Z,100.00
2023-03-05T22:58:54.909Z,100.00
2023-03-05T23:01:26.024Z,100.00
2023-03-05T23:04:01.502Z,100.00
2023-03-05T23:06:29.583Z,100.00
2023-03-05T23:08:58.036Z,100.00
2023-03-05T23:11:25.884Z,100.00
2023-03-05T23:13:53.900Z,100.00
2023-03-05T23:16:21.911Z,100.00
2023-03-05T23:18:51.256Z,100.00
2023-03-05T23:21:19.659Z,100.00
2023-03-05T23:23:47.570Z,100.00
2023-03-05T23:26:15.556Z,100.00
2023-03-05T23:28:43.555Z,100.00
2023-03-05T23:31:11.562Z,100.00
2023-03-05T23:33:39.822Z,100.00
2023-03-05T23:36:09.705Z,100.00
2023-03-05T23:38:37.761Z,100.00
2023-03-05T23:41:09.453Z,100.00
2023-03-05T23:43:37.417Z,100.00
2023-03-05T23:46:11.512Z,100.00
2023-03-05T23:48:39.604Z,100.00
2023-03-05T23:51:11.474Z,100.00
2023-03-05T23:53:39.658Z,100.00
2023-03-05T23:56:12.732Z,100.00
2023-03-05T23:58:40.777Z,100.00
